Terminal Aerodrome Forecast
Issued by NWS Binghamton, NY

Home | Current Version | Previous Version | Text Only | Print | Product List | Glossary On
Versions: 1 2 3 4 5 6 7 8 9 10 11 12 13 14 15
000
FTUS41 KBGM 242324
TAFSYR
TAF
KSYR 242324Z 2500/2524 12008KT P6SM FEW250
     FM250200 16005KT P6SM FEW250 WS020/21040KT
     FM251100 20009KT P6SM BKN140
     FM251500 22009KT P6SM OVC025
     FM252100 26007KT P6SM -SHRA OVC018=

USA.gov is the U.S. government's official web portal to all federal, state and local government web resources and services.